Time;durP1;ratioP1;P1;durP2;ratioP2;P2;SDS_P1;SDS_P2;PMS_P1;PMS_P2;Temp;Humidity;BMP_temperature;BMP_pressure;BME280_temperature;BME280_humidity;BME280_pressure;Samples;Min_cycle;Max_cycle;Signal;HPM_P1;HPM_P2
2024/01/17 00:02:04;;;;;;;9.80;4.25;;;;;;;;;;4971363;28;20703;-66
2024/01/17 00:04:30;;;;;;;8.00;4.00;;;;;;;;;;4982609;28;20057;-66
2024/01/17 00:06:57;;;;;;;8.55;3.97;;;;;;;;;;4990842;28;20046;-66
2024/01/17 00:09:22;;;;;;;9.63;5.28;;;;;;;;;;4971798;28;20105;-66
2024/01/17 00:11:52;;;;;;;7.03;4.10;;;;;;;;;;4973471;28;20046;-66
2024/01/17 00:14:18;;;;;;;10.57;4.63;;;;;;;;;;4971441;28;20047;-66
2024/01/17 00:16:44;;;;;;;10.60;4.10;;;;;;;;;;4937749;28;20086;-66
2024/01/17 00:19:10;;;;;;;10.75;4.85;;;;;;;;;;4970913;28;20046;-66
2024/01/17 00:21:37;;;;;;;11.68;5.03;;;;;;;;;;4983928;28;20429;-66
2024/01/17 00:24:03;;;;;;;8.85;4.80;;;;;;;;;;4984121;28;20545;-66
2024/01/17 00:26:29;;;;;;;9.88;5.10;;;;;;;;;;4981349;28;20045;-66
2024/01/17 00:28:56;;;;;;;10.77;5.55;;;;;;;;;;4959535;28;20509;-66
2024/01/17 00:31:23;;;;;;;9.63;5.45;;;;;;;;;;4970294;28;20042;-66
2024/01/17 00:33:49;;;;;;;9.65;5.55;;;;;;;;;;4971018;28;20501;-66
2024/01/17 00:36:15;;;;;;;10.10;5.82;;;;;;;;;;4971148;28;20118;-66
2024/01/17 00:38:41;;;;;;;12.40;6.25;;;;;;;;;;4970736;28;20042;-66
2024/01/17 00:41:07;;;;;;;12.73;5.80;;;;;;;;;;4970013;28;20035;-66
2024/01/17 00:43:33;;;;;;;11.85;6.35;;;;;;;;;;4972871;28;20046;-66
2024/01/17 00:45:59;;;;;;;13.85;6.75;;;;;;;;;;4990346;28;20034;-66
2024/01/17 00:48:25;;;;;;;13.23;6.88;;;;;;;;;;4981352;28;20065;-66
2024/01/17 00:50:51;;;;;;;14.82;6.40;;;;;;;;;;4970153;28;20118;-66
2024/01/17 00:53:17;;;;;;;11.85;7.07;;;;;;;;;;4970748;28;20604;-66
2024/01/17 00:55:43;;;;;;;13.32;7.40;;;;;;;;;;4973066;28;20042;-66
2024/01/17 00:58:09;;;;;;;14.27;7.68;;;;;;;;;;4989923;28;20570;-66
2024/01/17 01:00:35;;;;;;;14.18;7.50;;;;;;;;;;4961689;28;20037;-66
2024/01/17 01:03:01;;;;;;;14.55;7.88;;;;;;;;;;4970517;28;20031;-66
2024/01/17 01:05:27;;;;;;;13.80;7.70;;;;;;;;;;4970366;28;20110;-66
2024/01/17 01:07:53;;;;;;;13.30;7.18;;;;;;;;;;4970112;28;20093;-66
2024/01/17 01:10:20;;;;;;;13.55;8.73;;;;;;;;;;4970099;28;20548;-66
2024/01/17 01:12:46;;;;;;;16.90;8.00;;;;;;;;;;4970517;28;20130;-66
2024/01/17 01:15:12;;;;;;;13.63;7.60;;;;;;;;;;4970822;28;20050;-66
2024/01/17 01:17:38;;;;;;;13.90;7.93;;;;;;;;;;4970137;28;20449;-66
2024/01/17 01:20:04;;;;;;;15.95;7.93;;;;;;;;;;4973877;28;20105;-66
2024/01/17 01:22:30;;;;;;;14.75;8.20;;;;;;;;;;4969646;28;20069;-66
2024/01/17 01:24:56;;;;;;;13.05;7.97;;;;;;;;;;4970793;28;20034;-66
2024/01/17 01:27:22;;;;;;;14.63;8.00;;;;;;;;;;4987752;28;20124;-66
2024/01/17 01:29:48;;;;;;;16.67;8.15;;;;;;;;;;4970447;28;20770;-66
2024/01/17 01:32:14;;;;;;;16.27;8.23;;;;;;;;;;4968743;28;20101;-66
2024/01/17 01:34:40;;;;;;;12.90;7.78;;;;;;;;;;4970461;28;20047;-66
2024/01/17 01:37:06;;;;;;;19.92;9.15;;;;;;;;;;4982808;28;20438;-66
2024/01/17 01:39:32;;;;;;;12.15;8.18;;;;;;;;;;4989439;28;20137;-66
2024/01/17 01:41:58;;;;;;;14.05;8.13;;;;;;;;;;4969489;28;20608;-66
2024/01/17 01:44:24;;;;;;;15.30;7.70;;;;;;;;;;4970121;28;20629;-66
2024/01/17 01:46:50;;;;;;;16.63;9.38;;;;;;;;;;4970184;28;20053;-66
2024/01/17 01:49:16;;;;;;;17.50;8.73;;;;;;;;;;4960256;28;20053;-66
2024/01/17 01:51:44;;;;;;;13.95;8.73;;;;;;;;;;4969392;28;20046;-66
2024/01/17 01:54:11;;;;;;;21.30;8.93;;;;;;;;;;4970346;28;20485;-66
2024/01/17 01:56:37;;;;;;;18.35;8.93;;;;;;;;;;4978383;28;20039;-66
2024/01/17 01:59:04;;;;;;;14.45;8.77;;;;;;;;;;4971683;28;20146;-66
2024/01/17 02:01:30;;;;;;;13.63;8.77;;;;;;;;;;4973218;28;20512;-66
2024/01/17 02:03:57;;;;;;;16.77;8.98;;;;;;;;;;4972842;28;20169;-66
2024/01/17 02:06:23;;;;;;;16.27;9.57;;;;;;;;;;4988951;28;20050;-66
2024/01/17 02:08:55;;;;;;;17.45;9.38;;;;;;;;;;4952628;28;20393;-66
2024/01/17 02:11:21;;;;;;;16.20;10.15;;;;;;;;;;4973072;28;20400;-66
2024/01/17 02:13:47;;;;;;;17.50;9.77;;;;;;;;;;4974797;28;20058;-66
2024/01/17 02:16:14;;;;;;;13.88;9.52;;;;;;;;;;4973314;28;20051;-66
2024/01/17 02:18:40;;;;;;;18.77;10.98;;;;;;;;;;4956161;28;20047;-66
2024/01/17 02:21:06;;;;;;;21.30;10.93;;;;;;;;;;4972467;28;20030;-66
2024/01/17 02:23:32;;;;;;;18.48;9.77;;;;;;;;;;4973611;28;20042;-66
2024/01/17 02:25:59;;;;;;;22.75;10.65;;;;;;;;;;4968050;28;20046;-66
2024/01/17 02:28:26;;;;;;;16.80;9.88;;;;;;;;;;4972982;28;20482;-66
2024/01/17 02:30:52;;;;;;;16.10;9.77;;;;;;;;;;4973133;28;20408;-66
2024/01/17 02:33:19;;;;;;;17.60;9.50;;;;;;;;;;4972535;28;20185;-66
2024/01/17 02:35:45;;;;;;;16.75;10.40;;;;;;;;;;4973120;28;20046;-66
2024/01/17 02:38:11;;;;;;;16.23;10.05;;;;;;;;;;4972722;28;20035;-66
2024/01/17 02:40:37;;;;;;;17.50;10.88;;;;;;;;;;4979819;28;20034;-66
2024/01/17 02:43:03;;;;;;;15.68;10.45;;;;;;;;;;4974541;28;20042;-66
2024/01/17 02:45:29;;;;;;;17.83;11.00;;;;;;;;;;4978519;28;20634;-66
2024/01/17 02:47:55;;;;;;;15.65;9.73;;;;;;;;;;4972629;28;20545;-66
2024/01/17 02:50:21;;;;;;;21.38;10.38;;;;;;;;;;4972784;28;20105;-66
2024/01/17 02:52:48;;;;;;;18.80;10.35;;;;;;;;;;4970885;28;20062;-66
2024/01/17 02:55:17;;;;;;;21.55;10.70;;;;;;;;;;4972747;28;20046;-66
2024/01/17 02:57:43;;;;;;;19.38;11.38;;;;;;;;;;4973771;28;20045;-66
2024/01/17 03:00:09;;;;;;;19.15;10.88;;;;;;;;;;4975178;28;20066;-66
2024/01/17 03:02:36;;;;;;;20.45;11.77;;;;;;;;;;4991667;28;20503;-66
2024/01/17 03:05:03;;;;;;;17.73;10.77;;;;;;;;;;4982047;28;20389;-66
2024/01/17 03:07:29;;;;;;;22.77;10.88;;;;;;;;;;4972653;28;20050;-66
2024/01/17 03:09:55;;;;;;;23.13;11.60;;;;;;;;;;4979684;28;20041;-66
2024/01/17 03:12:21;;;;;;;21.45;11.77;;;;;;;;;;4975928;28;20035;-66
2024/01/17 03:14:47;;;;;;;19.77;11.50;;;;;;;;;;4991571;28;20053;-66
2024/01/17 03:17:13;;;;;;;21.88;11.52;;;;;;;;;;4976737;28;20057;-66
2024/01/17 03:19:40;;;;;;;23.10;12.07;;;;;;;;;;4972441;28;20126;-66
2024/01/17 03:22:06;;;;;;;19.85;11.07;;;;;;;;;;4971894;28;20727;-66
2024/01/17 03:24:32;;;;;;;18.25;11.60;;;;;;;;;;4971715;28;20078;-66
2024/01/17 03:26:58;;;;;;;21.30;11.68;;;;;;;;;;4986387;28;20545;-66
2024/01/17 03:29:24;;;;;;;19.15;11.73;;;;;;;;;;4975578;28;20089;-66
2024/01/17 03:31:50;;;;;;;20.52;11.25;;;;;;;;;;4970481;28;20103;-66
2024/01/17 03:34:16;;;;;;;20.38;11.27;;;;;;;;;;4971998;28;20465;-66
2024/01/17 03:36:42;;;;;;;23.35;11.65;;;;;;;;;;4971916;28;20047;-66
2024/01/17 03:39:08;;;;;;;22.15;11.70;;;;;;;;;;4971984;28;20788;-66
2024/01/17 03:41:34;;;;;;;19.75;11.35;;;;;;;;;;4985021;28;20039;-66
2024/01/17 03:44:00;;;;;;;19.10;11.38;;;;;;;;;;4990261;28;20070;-66
2024/01/17 03:46:26;;;;;;;21.02;10.98;;;;;;;;;;4972148;28;20129;-66
2024/01/17 03:48:52;;;;;;;20.20;12.05;;;;;;;;;;4971597;28;20133;-66
2024/01/17 03:51:18;;;;;;;23.02;11.52;;;;;;;;;;4971652;28;20050;-66
2024/01/17 03:53:46;;;;;;;20.38;11.57;;;;;;;;;;4971111;28;20039;-66
2024/01/17 03:56:12;;;;;;;21.60;11.63;;;;;;;;;;4954450;28;20086;-66
2024/01/17 03:58:39;;;;;;;20.40;11.98;;;;;;;;;;4971257;28;20478;-66
2024/01/17 04:01:06;;;;;;;22.80;11.63;;;;;;;;;;4971309;28;20629;-66
2024/01/17 04:03:32;;;;;;;17.88;11.68;;;;;;;;;;4969254;28;20077;-66
2024/01/17 04:05:58;;;;;;;18.80;11.48;;;;;;;;;;4971478;28;20046;-66
2024/01/17 04:08:24;;;;;;;21.15;11.43;;;;;;;;;;4971295;28;20465;-66
2024/01/17 04:10:50;;;;;;;17.08;11.70;;;;;;;;;;4971325;28;20038;-66
2024/01/17 04:13:16;;;;;;;19.30;11.25;;;;;;;;;;4979769;28;20393;-66
2024/01/17 04:15:42;;;;;;;19.27;12.23;;;;;;;;;;4970543;28;20050;-66
2024/01/17 04:18:08;;;;;;;21.40;12.45;;;;;;;;;;4966225;28;20698;-66
2024/01/17 04:20:34;;;;;;;20.35;11.70;;;;;;;;;;4973782;28;20065;-66
2024/01/17 04:23:00;;;;;;;21.90;12.13;;;;;;;;;;4970770;28;20050;-66
2024/01/17 04:25:26;;;;;;;22.52;11.57;;;;;;;;;;4972907;28;20043;-66
2024/01/17 04:27:52;;;;;;;21.48;11.70;;;;;;;;;;4987304;28;20081;-66
2024/01/17 04:30:18;;;;;;;21.48;12.20;;;;;;;;;;4984802;28;20093;-66
2024/01/17 04:32:45;;;;;;;15.32;10.95;;;;;;;;;;4987057;28;20043;-66
2024/01/17 04:35:11;;;;;;;20.27;12.45;;;;;;;;;;4969853;28;20043;-66
2024/01/17 04:37:39;;;;;;;18.73;11.30;;;;;;;;;;4970906;28;20038;-66
2024/01/17 04:40:06;;;;;;;20.13;12.55;;;;;;;;;;4970909;28;20175;-66
2024/01/17 04:42:32;;;;;;;19.92;11.80;;;;;;;;;;4988047;28;20053;-66
2024/01/17 04:44:58;;;;;;;19.13;11.38;;;;;;;;;;4984608;28;20473;-66
2024/01/17 04:47:24;;;;;;;21.50;11.57;;;;;;;;;;4970811;28;20039;-66
2024/01/17 04:49:50;;;;;;;17.33;11.00;;;;;;;;;;4970840;28;20556;-66
2024/01/17 04:52:18;;;;;;;16.90;11.10;;;;;;;;;;4970816;28;20047;-66
2024/01/17 04:54:44;;;;;;;19.60;11.73;;;;;;;;;;4988464;28;20452;-66
2024/01/17 04:57:10;;;;;;;16.15;10.95;;;;;;;;;;4984076;28;20652;-66
2024/01/17 04:59:37;;;;;;;19.08;11.20;;;;;;;;;;4970389;28;20043;-66
2024/01/17 05:02:03;;;;;;;19.80;10.82;;;;;;;;;;4970797;28;20461;-66
2024/01/17 05:04:29;;;;;;;20.73;11.68;;;;;;;;;;4969734;28;20109;-66
2024/01/17 05:06:55;;;;;;;20.40;11.15;;;;;;;;;;4970658;28;20047;-66
2024/01/17 05:09:22;;;;;;;17.38;11.10;;;;;;;;;;4970483;28;20049;-66
2024/01/17 05:11:48;;;;;;;17.27;11.25;;;;;;;;;;4970415;28;20046;-66
2024/01/17 05:14:14;;;;;;;17.05;10.65;;;;;;;;;;4966274;28;20108;-66
2024/01/17 05:16:41;;;;;;;23.73;11.38;;;;;;;;;;4962249;28;20122;-66
2024/01/17 05:19:07;;;;;;;16.75;11.40;;;;;;;;;;4970240;28;20042;-66
2024/01/17 05:21:33;;;;;;;21.75;10.52;;;;;;;;;;4977998;28;20114;-66
2024/01/17 05:23:59;;;;;;;16.92;10.95;;;;;;;;;;4989714;28;20432;-66
2024/01/17 05:26:25;;;;;;;16.75;10.73;;;;;;;;;;4974368;28;20105;-66
2024/01/17 05:28:51;;;;;;;17.70;10.45;;;;;;;;;;4970342;28;20038;-66
2024/01/17 05:31:17;;;;;;;18.05;10.50;;;;;;;;;;4970258;28;20043;-66
2024/01/17 05:33:44;;;;;;;17.98;10.75;;;;;;;;;;4970090;28;20042;-66
2024/01/17 05:36:10;;;;;;;21.02;11.43;;;;;;;;;;4969614;28;20093;-66
2024/01/17 05:38:36;;;;;;;16.05;9.98;;;;;;;;;;4986548;28;20374;-66
2024/01/17 05:41:03;;;;;;;17.00;10.63;;;;;;;;;;4968183;28;20043;-66
2024/01/17 05:43:30;;;;;;;18.05;10.50;;;;;;;;;;4970375;28;20043;-66
2024/01/17 05:45:59;;;;;;;16.70;10.20;;;;;;;;;;4969597;28;20162;-66
2024/01/17 05:48:25;;;;;;;18.40;10.48;;;;;;;;;;4974295;28;20046;-66
2024/01/17 05:50:51;;;;;;;17.20;9.38;;;;;;;;;;4973904;28;20039;-66
2024/01/17 05:53:17;;;;;;;16.98;10.07;;;;;;;;;;4975433;28;20743;-66
2024/01/17 05:55:44;;;;;;;20.50;9.70;;;;;;;;;;4972967;28;20182;-66
2024/01/17 05:58:10;;;;;;;18.20;9.57;;;;;;;;;;4981611;28;20116;-66
2024/01/17 06:00:36;;;;;;;16.75;10.35;;;;;;;;;;4982464;28;20089;-66
2024/01/17 06:03:02;;;;;;;16.83;9.70;;;;;;;;;;4983900;28;20069;-66
2024/01/17 06:05:28;;;;;;;18.08;10.40;;;;;;;;;;4981165;28;20047;-66
2024/01/17 06:07:55;;;;;;;15.02;9.27;;;;;;;;;;4987320;28;20051;-66
2024/01/17 06:10:21;;;;;;;18.60;9.85;;;;;;;;;;4979491;28;20382;-66
2024/01/17 06:12:47;;;;;;;16.67;9.20;;;;;;;;;;4973478;28;20043;-66
2024/01/17 06:15:17;;;;;;;16.42;9.32;;;;;;;;;;4973232;28;20542;-66
2024/01/17 06:17:43;;;;;;;12.55;9.02;;;;;;;;;;4973277;28;20038;-66
2024/01/17 06:20:09;;;;;;;16.25;9.85;;;;;;;;;;4973415;28;20108;-66
2024/01/17 06:22:36;;;;;;;17.27;9.35;;;;;;;;;;4973454;28;20046;-66
2024/01/17 06:25:02;;;;;;;15.18;9.52;;;;;;;;;;4975263;28;20043;-66
2024/01/17 06:27:28;;;;;;;16.48;9.43;;;;;;;;;;4974496;28;20513;-66
2024/01/17 06:29:54;;;;;;;21.08;9.82;;;;;;;;;;4973345;28;20042;-66
2024/01/17 06:32:20;;;;;;;15.48;9.88;;;;;;;;;;4973354;28;20540;-66
2024/01/17 06:34:46;;;;;;;15.93;8.65;;;;;;;;;;4973291;28;20043;-66
2024/01/17 06:37:12;;;;;;;16.23;9.75;;;;;;;;;;4972512;28;20148;-66
2024/01/17 06:39:38;;;;;;;18.50;10.13;;;;;;;;;;4972976;28;20453;-66
2024/01/17 06:42:05;;;;;;;16.50;9.63;;;;;;;;;;4987795;28;20070;-66
2024/01/17 06:44:31;;;;;;;20.50;9.88;;;;;;;;;;4973172;28;20042;-66
2024/01/17 06:46:57;;;;;;;16.67;9.48;;;;;;;;;;4972352;28;20630;-66
2024/01/17 06:49:23;;;;;;;17.10;9.13;;;;;;;;;;4972911;28;20078;-66
2024/01/17 06:51:50;;;;;;;14.38;9.20;;;;;;;;;;4973191;28;20423;-66
2024/01/17 06:54:16;;;;;;;17.45;9.43;;;;;;;;;;4972710;28;20347;-66
2024/01/17 06:56:42;;;;;;;18.63;9.15;;;;;;;;;;4975364;28;20043;-66
2024/01/17 06:59:08;;;;;;;16.60;9.50;;;;;;;;;;4965171;28;20073;-66
2024/01/17 07:01:35;;;;;;;15.60;9.48;;;;;;;;;;4982163;28;20115;-66
2024/01/17 07:04:02;;;;;;;16.08;9.50;;;;;;;;;;4980847;28;20121;-66
2024/01/17 07:06:28;;;;;;;20.08;9.45;;;;;;;;;;4975282;28;20043;-66
2024/01/17 07:08:54;;;;;;;17.30;9.50;;;;;;;;;;4972810;28;20539;-66
2024/01/17 07:11:20;;;;;;;15.95;9.70;;;;;;;;;;4975920;28;20381;-66
2024/01/17 07:13:46;;;;;;;17.58;9.25;;;;;;;;;;4985181;28;20045;-66
2024/01/17 07:16:15;;;;;;;19.30;9.15;;;;;;;;;;4971730;28;20062;-66
2024/01/17 07:18:41;;;;;;;17.45;9.93;;;;;;;;;;4986161;28;20748;-66
2024/01/17 07:21:08;;;;;;;15.85;8.73;;;;;;;;;;4988504;28;20119;-65
2024/01/17 07:23:34;;;;;;;16.92;9.32;;;;;;;;;;4972749;28;20125;-65
2024/01/17 07:26:00;;;;;;;15.52;9.90;;;;;;;;;;4953697;28;20034;-65
2024/01/17 07:28:26;;;;;;;16.83;8.68;;;;;;;;;;4959914;28;20039;-66
2024/01/17 07:30:52;;;;;;;16.63;10.18;;;;;;;;;;4963992;28;20046;-64
2024/01/17 07:33:18;;;;;;;18.65;10.43;;;;;;;;;;4943050;28;20602;-63
2024/01/17 07:35:44;;;;;;;17.10;9.73;;;;;;;;;;4969131;28;20039;-63
2024/01/17 07:38:10;;;;;;;17.90;10.15;;;;;;;;;;4972101;28;20074;-64
2024/01/17 07:40:37;;;;;;;14.93;9.88;;;;;;;;;;4971911;28;20544;-64
2024/01/17 07:43:03;;;;;;;18.27;10.68;;;;;;;;;;4974464;28;20618;-63
2024/01/17 07:45:29;;;;;;;15.68;9.07;;;;;;;;;;4970256;28;20085;-63
2024/01/17 07:47:55;;;;;;;15.23;9.68;;;;;;;;;;4971440;28;20081;-62
2024/01/17 07:50:21;;;;;;;19.35;10.75;;;;;;;;;;4971646;28;20437;-62
2024/01/17 07:52:47;;;;;;;16.40;9.82;;;;;;;;;;4971999;28;20121;-62
2024/01/17 07:55:13;;;;;;;18.27;10.25;;;;;;;;;;4971307;28;20042;-62
2024/01/17 07:57:39;;;;;;;17.35;9.70;;;;;;;;;;4971120;28;20413;-62
2024/01/17 08:00:06;;;;;;;16.33;10.00;;;;;;;;;;4974634;28;20039;-62
2024/01/17 08:02:32;;;;;;;15.55;9.68;;;;;;;;;;4971198;28;20504;-62
2024/01/17 08:04:58;;;;;;;17.48;10.35;;;;;;;;;;4970696;28;20051;-62
2024/01/17 08:07:26;;;;;;;14.02;9.27;;;;;;;;;;4970344;28;20420;-62
2024/01/17 08:09:53;;;;;;;18.33;9.73;;;;;;;;;;4971248;28;20133;-62
2024/01/17 08:12:19;;;;;;;18.20;10.20;;;;;;;;;;4971152;28;20476;-62
2024/01/17 08:14:45;;;;;;;14.02;9.48;;;;;;;;;;4969138;28;20494;-63
2024/01/17 08:17:11;;;;;;;16.40;9.40;;;;;;;;;;4970009;28;20175;-63
2024/01/17 08:19:37;;;;;;;14.32;10.07;;;;;;;;;;4969797;28;20717;-63
2024/01/17 08:22:04;;;;;;;12.95;9.35;;;;;;;;;;4969539;28;20457;-63
2024/01/17 08:24:30;;;;;;;17.92;10.32;;;;;;;;;;4968699;28;20046;-63
2024/01/17 08:26:56;;;;;;;16.63;10.10;;;;;;;;;;4967431;28;20046;-62
2024/01/17 08:29:23;;;;;;;18.25;10.02;;;;;;;;;;4968115;28;20042;-62
2024/01/17 08:31:49;;;;;;;17.13;10.52;;;;;;;;;;4961569;28;20054;-62
2024/01/17 08:34:15;;;;;;;15.50;9.60;;;;;;;;;;4974784;28;20397;-62
2024/01/17 08:36:41;;;;;;;15.88;9.35;;;;;;;;;;4977779;28;20034;-62
2024/01/17 08:39:07;;;;;;;15.95;9.73;;;;;;;;;;4956743;28;20043;-62
2024/01/17 08:41:33;;;;;;;15.48;9.68;;;;;;;;;;4977572;28;20041;-63
2024/01/17 08:44:02;;;;;;;18.35;9.95;;;;;;;;;;4974578;28;20053;-62
2024/01/17 08:46:29;;;;;;;14.45;9.68;;;;;;;;;;4969655;28;20050;-62
2024/01/17 08:48:55;;;;;;;17.73;10.07;;;;;;;;;;4968694;28;20765;-62
2024/01/17 08:51:24;;;;;;;17.65;9.38;;;;;;;;;;4968704;28;20133;-62
2024/01/17 08:53:51;;;;;;;17.95;9.10;;;;;;;;;;4968716;28;20505;-62
2024/01/17 08:56:17;;;;;;;16.30;9.55;;;;;;;;;;4968097;28;20047;-62
2024/01/17 08:58:43;;;;;;;14.35;9.75;;;;;;;;;;4968534;28;20039;-62
2024/01/17 09:01:10;;;;;;;14.93;9.20;;;;;;;;;;4969518;28;20046;-62
2024/01/17 09:03:36;;;;;;;17.92;9.02;;;;;;;;;;4978413;28;20047;-63
2024/01/17 09:06:02;;;;;;;17.88;9.35;;;;;;;;;;4969931;28;20054;-62
2024/01/17 09:08:28;;;;;;;17.23;9.00;;;;;;;;;;4969927;28;20134;-62
2024/01/17 09:10:54;;;;;;;14.98;8.73;;;;;;;;;;4969627;28;20571;-62
2024/01/17 09:13:21;;;;;;;16.00;9.02;;;;;;;;;;4989655;28;20048;-62
2024/01/17 09:15:47;;;;;;;14.68;9.15;;;;;;;;;;4970679;28;20043;-62
2024/01/17 09:18:17;;;;;;;18.63;9.35;;;;;;;;;;4955908;28;20393;-62
2024/01/17 09:20:43;;;;;;;17.27;9.25;;;;;;;;;;4970015;28;20047;-62
2024/01/17 09:23:09;;;;;;;13.52;8.73;;;;;;;;;;4985101;28;20124;-62
2024/01/17 09:25:35;;;;;;;17.13;9.02;;;;;;;;;;4976870;28;20042;-62
2024/01/17 09:28:01;;;;;;;16.80;9.15;;;;;;;;;;4966757;28;20137;-62
2024/01/17 09:30:27;;;;;;;17.63;9.07;;;;;;;;;;4976243;28;20100;-62
2024/01/17 09:32:53;;;;;;;15.98;8.50;;;;;;;;;;4976798;28;20043;-63
2024/01/17 09:35:19;;;;;;;11.93;7.90;;;;;;;;;;4976317;28;20035;-62
2024/01/17 09:37:45;;;;;;;13.68;8.25;;;;;;;;;;4975844;28;20517;-62
2024/01/17 09:40:12;;;;;;;16.05;9.05;;;;;;;;;;4976283;28;20046;-62
2024/01/17 09:42:38;;;;;;;14.30;8.65;;;;;;;;;;4976816;28;20064;-62
2024/01/17 09:45:05;;;;;;;13.05;8.65;;;;;;;;;;4976923;28;20077;-62
2024/01/17 09:47:34;;;;;;;14.90;8.77;;;;;;;;;;4975640;28;20046;-62
2024/01/17 09:50:00;;;;;;;18.25;9.13;;;;;;;;;;4976512;28;20056;-62
2024/01/17 09:52:26;;;;;;;16.52;8.50;;;;;;;;;;4976194;28;20529;-62
2024/01/17 09:54:53;;;;;;;15.10;8.60;;;;;;;;;;4976200;28;20047;-62
2024/01/17 09:57:23;;;;;;;15.73;8.40;;;;;;;;;;4975924;28;20386;-62
2024/01/17 09:59:52;;;;;;;17.52;8.38;;;;;;;;;;4975652;28;20038;-62
2024/01/17 10:02:19;;;;;;;14.82;8.75;;;;;;;;;;4976900;28;20034;-62
2024/01/17 10:04:46;;;;;;;15.30;8.23;;;;;;;;;;4976275;28;20049;-62
2024/01/17 10:07:12;;;;;;;16.05;8.98;;;;;;;;;;4973830;28;20067;-63
2024/01/17 10:09:40;;;;;;;13.35;8.15;;;;;;;;;;4975214;28;20042;-62
2024/01/17 10:12:07;;;;;;;15.48;7.80;;;;;;;;;;4975651;28;20062;-62
2024/01/17 10:14:33;;;;;;;15.60;8.23;;;;;;;;;;4975676;28;20055;-62
2024/01/17 10:16:59;;;;;;;14.50;7.95;;;;;;;;;;4974934;28;20406;-62
2024/01/17 10:19:25;;;;;;;19.45;8.25;;;;;;;;;;4975458;28;20698;-62
2024/01/17 10:21:51;;;;;;;16.60;8.65;;;;;;;;;;4991220;28;20178;-62
2024/01/17 10:24:17;;;;;;;17.48;8.45;;;;;;;;;;4977095;28;20056;-62
2024/01/17 10:26:48;;;;;;;16.85;7.93;;;;;;;;;;4976081;28;20050;-62
2024/01/17 10:29:15;;;;;;;16.15;8.02;;;;;;;;;;4975029;28;20058;-62
2024/01/17 10:31:41;;;;;;;13.90;7.90;;;;;;;;;;4958070;28;20054;-62
2024/01/17 10:34:10;;;;;;;14.88;8.35;;;;;;;;;;4972168;28;20072;-63
2024/01/17 10:36:39;;;;;;;16.75;8.90;;;;;;;;;;4972730;28;20430;-62
2024/01/17 10:39:05;;;;;;;14.07;7.80;;;;;;;;;;4972531;28;20054;-62
2024/01/17 10:41:32;;;;;;;13.50;7.55;;;;;;;;;;4972965;28;20034;-62
2024/01/17 10:44:00;;;;;;;14.50;8.23;;;;;;;;;;4982792;28;20485;-62
2024/01/17 10:46:26;;;;;;;15.90;8.00;;;;;;;;;;4972352;28;20441;-62
2024/01/17 10:48:52;;;;;;;14.07;7.88;;;;;;;;;;4971147;28;20525;-62
2024/01/17 10:51:20;;;;;;;14.10;7.72;;;;;;;;;;4981987;28;20046;-62
2024/01/17 10:53:50;;;;;;;15.02;7.80;;;;;;;;;;4973101;28;20046;-62
2024/01/17 10:56:19;;;;;;;12.02;7.93;;;;;;;;;;4972273;28;20547;-63
2024/01/17 10:58:48;;;;;;;12.60;8.32;;;;;;;;;;4971624;28;20099;-62
2024/01/17 11:01:14;;;;;;;16.73;8.27;;;;;;;;;;4972305;28;20049;-62
2024/01/17 11:03:44;;;;;;;13.18;7.88;;;;;;;;;;4973404;28;20090;-62
2024/01/17 11:06:11;;;;;;;14.38;8.38;;;;;;;;;;4972547;28;20065;-62
2024/01/17 11:08:38;;;;;;;14.45;7.90;;;;;;;;;;4970237;28;20042;-62
2024/01/17 11:11:04;;;;;;;12.20;7.75;;;;;;;;;;4970305;28;20047;-62
2024/01/17 11:13:31;;;;;;;13.25;7.50;;;;;;;;;;4970764;28;20097;-62
2024/01/17 11:15:59;;;;;;;13.05;8.18;;;;;;;;;;4974393;28;20062;-62
2024/01/17 11:18:26;;;;;;;17.52;8.50;;;;;;;;;;4970899;28;20051;-62
2024/01/17 11:20:53;;;;;;;18.10;8.10;;;;;;;;;;4977806;28;20034;-62
2024/01/17 11:23:37;;;;;;;13.52;7.57;;;;;;;;;;4980585;28;20086;-62
2024/01/17 11:26:06;;;;;;;12.45;7.00;;;;;;;;;;4977120;28;20070;-62
2024/01/17 11:28:44;;;;;;;11.35;7.40;;;;;;;;;;4970178;28;20536;-62
2024/01/17 11:31:13;;;;;;;11.93;7.50;;;;;;;;;;4970301;28;20043;-63
2024/01/17 11:33:39;;;;;;;12.23;7.93;;;;;;;;;;4970999;28;20046;-61
2024/01/17 11:36:05;;;;;;;17.73;7.88;;;;;;;;;;4970763;28;20097;-62
2024/01/17 11:38:32;;;;;;;14.40;7.45;;;;;;;;;;4970006;28;20050;-62
2024/01/17 11:41:09;;;;;;;14.25;7.88;;;;;;;;;;4969929;28;20038;-62
2024/01/17 11:43:41;;;;;;;13.27;7.95;;;;;;;;;;4970636;28;20070;-62
2024/01/17 11:46:10;;;;;;;12.35;8.13;;;;;;;;;;4970626;28;20054;-62
2024/01/17 11:48:38;;;;;;;14.02;7.93;;;;;;;;;;4960639;28;20663;-62
2024/01/17 11:51:10;;;;;;;14.35;7.88;;;;;;;;;;4969921;28;20117;-62
2024/01/17 11:53:36;;;;;;;16.67;8.98;;;;;;;;;;4970557;28;20650;-62
2024/01/17 11:56:05;;;;;;;12.60;7.18;;;;;;;;;;4969223;28;20074;-62
2024/01/17 11:58:40;;;;;;;11.77;7.82;;;;;;;;;;4971406;28;20038;-62
2024/01/17 12:01:11;;;;;;;11.75;7.40;;;;;;;;;;4971035;28;20116;-62
2024/01/17 12:03:37;;;;;;;16.00;7.90;;;;;;;;;;4969080;28;20623;-62
2024/01/17 12:06:03;;;;;;;15.63;7.65;;;;;;;;;;4969321;28;20061;-62
2024/01/17 12:08:29;;;;;;;11.50;7.30;;;;;;;;;;4968859;28;20049;-62
2024/01/17 12:10:56;;;;;;;15.00;8.15;;;;;;;;;;4968791;28;20043;-62
2024/01/17 12:13:23;;;;;;;11.55;7.53;;;;;;;;;;4971790;28;20039;-62
2024/01/17 12:15:52;;;;;;;12.60;7.28;;;;;;;;;;4977643;28;20074;-62
2024/01/17 12:18:19;;;;;;;13.73;8.02;;;;;;;;;;4983915;28;20042;-62
2024/01/17 12:20:46;;;;;;;12.88;7.63;;;;;;;;;;4977743;28;20038;-62
2024/01/17 12:23:12;;;;;;;13.05;7.75;;;;;;;;;;4975771;28;20049;-62
2024/01/17 12:25:38;;;;;;;14.00;7.68;;;;;;;;;;4976183;28;20038;-62
2024/01/17 12:28:05;;;;;;;16.75;8.18;;;;;;;;;;4983289;28;20047;-62
2024/01/17 12:30:31;;;;;;;13.35;8.23;;;;;;;;;;4984030;28;20038;-62
2024/01/17 12:32:57;;;;;;;13.73;8.40;;;;;;;;;;4984888;28;20042;-62
2024/01/17 12:35:23;;;;;;;12.77;7.57;;;;;;;;;;4969332;28;20050;-63
2024/01/17 12:37:49;;;;;;;13.38;8.05;;;;;;;;;;4968508;28;20054;-62
2024/01/17 12:40:15;;;;;;;12.95;7.85;;;;;;;;;;4977317;28;20082;-63
2024/01/17 12:42:41;;;;;;;12.15;7.25;;;;;;;;;;4969494;28;20046;-63
2024/01/17 12:45:08;;;;;;;13.27;7.97;;;;;;;;;;4974678;28;20144;-63
2024/01/17 12:47:34;;;;;;;13.02;8.13;;;;;;;;;;4971702;28;20061;-63
2024/01/17 12:50:00;;;;;;;18.08;8.23;;;;;;;;;;4967190;28;20285;-63
2024/01/17 12:52:26;;;;;;;11.30;7.55;;;;;;;;;;4969691;28;20050;-62
2024/01/17 12:54:52;;;;;;;11.63;7.57;;;;;;;;;;4970517;28;20043;-63
2024/01/17 12:57:18;;;;;;;13.57;7.78;;;;;;;;;;4980495;28;20049;-63
2024/01/17 12:59:44;;;;;;;14.65;8.43;;;;;;;;;;4978228;28;20043;-62
2024/01/17 13:02:14;;;;;;;14.30;7.65;;;;;;;;;;4972511;28;20607;-62
2024/01/17 13:04:40;;;;;;;13.55;8.00;;;;;;;;;;4969921;28;20054;-62
2024/01/17 13:07:06;;;;;;;12.13;7.03;;;;;;;;;;4972214;28;20042;-62
2024/01/17 13:09:33;;;;;;;11.75;7.30;;;;;;;;;;4969846;28;20092;-62
2024/01/17 13:12:05;;;;;;;11.15;6.90;;;;;;;;;;4975647;28;20073;-62
2024/01/17 13:14:32;;;;;;;13.70;7.40;;;;;;;;;;4970042;28;20057;-62
2024/01/17 13:16:58;;;;;;;11.25;7.43;;;;;;;;;;4969493;28;20074;-62
2024/01/17 13:19:24;;;;;;;17.63;6.95;;;;;;;;;;4976072;28;20522;-62
2024/01/17 13:21:50;;;;;;;10.25;6.05;;;;;;;;;;4972024;28;20043;-63
2024/01/17 13:24:16;;;;;;;9.75;6.47;;;;;;;;;;4969639;28;20508;-62
2024/01/17 13:26:43;;;;;;;12.82;6.28;;;;;;;;;;4969511;28;20046;-62
2024/01/17 13:29:12;;;;;;;10.77;6.80;;;;;;;;;;4968704;28;20094;-62
2024/01/17 13:31:38;;;;;;;13.80;8.15;;;;;;;;;;4967922;28;20053;-63
2024/01/17 13:34:07;;;;;;;10.95;7.28;;;;;;;;;;4968801;28;20047;-62
2024/01/17 13:36:34;;;;;;;11.20;6.95;;;;;;;;;;4966950;28;20047;-62
2024/01/17 13:39:00;;;;;;;12.40;6.63;;;;;;;;;;4972096;28;20065;-62
2024/01/17 13:41:26;;;;;;;13.82;8.02;;;;;;;;;;4977679;28;20041;-62
2024/01/17 13:43:56;;;;;;;12.02;7.13;;;;;;;;;;4969458;28;20046;-62
2024/01/17 13:46:23;;;;;;;13.25;7.05;;;;;;;;;;4969127;28;20433;-63
2024/01/17 13:48:50;;;;;;;13.77;7.50;;;;;;;;;;4981213;28;20042;-62
2024/01/17 13:51:16;;;;;;;13.13;7.55;;;;;;;;;;4973029;28;20065;-62
2024/01/17 13:53:43;;;;;;;15.13;7.63;;;;;;;;;;4977156;28;20070;-63
2024/01/17 13:56:10;;;;;;;14.55;7.85;;;;;;;;;;4969949;28;20035;-62
2024/01/17 13:58:39;;;;;;;14.43;8.30;;;;;;;;;;4969495;28;20387;-62
2024/01/17 14:01:08;;;;;;;15.80;8.60;;;;;;;;;;4971269;28;20437;-62
2024/01/17 14:03:35;;;;;;;15.23;8.65;;;;;;;;;;4978134;28;20082;-62
2024/01/17 14:06:01;;;;;;;17.58;9.70;;;;;;;;;;4979566;28;20149;-63
2024/01/17 14:08:27;;;;;;;12.32;8.88;;;;;;;;;;4978891;28;20034;-62
2024/01/17 14:10:55;;;;;;;12.48;8.95;;;;;;;;;;4973696;28;20046;-62
2024/01/17 14:13:21;;;;;;;14.93;9.65;;;;;;;;;;4982155;28;20050;-63
2024/01/17 14:15:48;;;;;;;19.77;8.63;;;;;;;;;;4978978;28;20655;-63
2024/01/17 14:18:14;;;;;;;14.35;8.27;;;;;;;;;;4983068;28;20058;-63
2024/01/17 14:20:40;;;;;;;13.57;7.72;;;;;;;;;;4983996;28;20500;-62
2024/01/17 14:23:07;;;;;;;13.15;7.90;;;;;;;;;;4980673;28;20046;-62